Time;durP1;ratioP1;P1;durP2;ratioP2;P2;SDS_P1;SDS_P2;PMS_P1;PMS_P2;Temp;Humidity;BMP_temperature;BMP_pressure;BME280_temperature;BME280_humidity;BME280_pressure;Samples;Min_cycle;Max_cycle;Signal;HPM_P1;HPM_P2
2021/12/18 00:00:10;;;;;;;15.10;8.38;;;4.80;99.90;;;;;;5094298;28;20216;-58
2021/12/18 00:02:36;;;;;;;15.38;8.88;;;4.80;99.90;;;;;;5094562;28;20176;-58
2021/12/18 00:05:02;;;;;;;15.82;8.73;;;4.80;99.90;;;;;;5094723;28;20176;-58
2021/12/18 00:07:27;;;;;;;18.13;9.18;;;4.80;99.90;;;;;;5094650;28;20180;-58
2021/12/18 00:09:53;;;;;;;16.45;9.07;;;4.80;99.90;;;;;;5093291;28;20176;-58
2021/12/18 00:12:19;;;;;;;16.85;8.70;;;4.80;99.90;;;;;;5094429;28;20182;-59
2021/12/18 00:14:45;;;;;;;17.10;8.93;;;4.70;99.90;;;;;;5094125;28;20275;-59
2021/12/18 00:17:10;;;;;;;14.80;8.50;;;4.70;99.90;;;;;;5094793;28;20220;-58
2021/12/18 00:19:36;;;;;;;15.02;8.75;;;4.70;99.90;;;;;;5093737;28;20584;-59
2021/12/18 00:22:02;;;;;;;14.95;8.50;;;4.70;99.90;;;;;;5094972;28;20230;-59
2021/12/18 00:24:27;;;;;;;15.85;9.35;;;4.60;99.90;;;;;;5092083;28;20176;-59
2021/12/18 00:26:53;;;;;;;16.55;9.23;;;4.60;99.90;;;;;;5094521;28;20627;-58
2021/12/18 00:29:19;;;;;;;20.38;9.45;;;4.60;99.90;;;;;;5093893;28;20275;-59
2021/12/18 00:31:45;;;;;;;21.35;10.30;;;4.60;99.90;;;;;;5094213;28;20275;-59
2021/12/18 00:34:10;;;;;;;18.67;9.13;;;4.70;99.90;;;;;;5093825;28;20172;-60
2021/12/18 00:36:36;;;;;;;19.42;10.27;;;4.70;99.90;;;;;;5093513;28;20216;-59
2021/12/18 00:39:02;;;;;;;17.13;8.95;;;4.70;99.90;;;;;;5090563;28;20184;-58
2021/12/18 00:44:03;;;;;;;18.25;8.80;;;4.60;99.90;;;;;;5093733;28;20172;-58
2021/12/18 00:46:38;;;;;;;18.05;8.40;;;4.60;99.90;;;;;;5093871;28;20228;-58
2021/12/18 00:49:06;;;;;;;14.95;8.20;;;4.60;99.90;;;;;;5079748;28;20180;-58
2021/12/18 00:51:32;;;;;;;17.70;9.10;;;4.50;99.90;;;;;;5093873;28;20536;-58
2021/12/18 00:53:57;;;;;;;14.32;8.32;;;4.50;99.90;;;;;;5092977;28;20180;-58
2021/12/18 00:56:23;;;;;;;17.10;8.55;;;4.50;99.90;;;;;;5091658;28;20220;-59
2021/12/18 00:58:50;;;;;;;17.05;8.80;;;4.50;99.90;;;;;;5094212;28;20227;-58
2021/12/18 01:01:19;;;;;;;16.05;8.45;;;4.50;99.90;;;;;;5092985;28;20229;-58
2021/12/18 01:03:47;;;;;;;15.88;8.50;;;4.40;99.90;;;;;;5093730;28;20172;-58
2021/12/18 01:06:12;;;;;;;17.92;8.98;;;4.40;99.90;;;;;;5093558;28;20319;-58
2021/12/18 01:08:38;;;;;;;18.40;9.77;;;4.40;99.90;;;;;;5093382;28;20208;-58
2021/12/18 01:11:31;;;;;;;19.33;9.40;;;4.30;99.90;;;;;;5093140;28;20183;-58
2021/12/18 01:16:26;;;;;;;18.42;9.63;;;4.30;99.90;;;;;;5082299;28;20212;-58
2021/12/18 01:24:20;;;;;;;18.52;9.60;;;4.30;99.90;;;;;;5092191;28;20654;-58
2021/12/18 01:26:45;;;;;;;18.95;9.27;;;4.20;99.90;;;;;;5093397;28;20188;-58
2021/12/18 01:29:11;;;;;;;19.05;9.88;;;4.20;99.90;;;;;;5093180;28;20172;-58
2021/12/18 01:31:36;;;;;;;19.05;9.40;;;4.10;99.90;;;;;;5092494;28;20184;-58
2021/12/18 01:34:02;;;;;;;19.13;9.88;;;4.20;99.90;;;;;;5093111;28;20608;-58
2021/12/18 01:36:29;;;;;;;18.13;9.43;;;4.20;99.90;;;;;;5093010;28;20211;-58
2021/12/18 01:38:56;;;;;;;18.48;9.68;;;4.20;99.90;;;;;;5086290;28;20189;-58
2021/12/18 01:41:22;;;;;;;22.98;9.70;;;4.20;99.90;;;;;;5093003;28;20184;-58
2021/12/18 01:46:38;;;;;;;17.60;9.48;;;4.20;99.90;;;;;;5092618;28;20212;-58
2021/12/18 01:54:35;;;;;;;18.45;9.00;;;4.10;99.90;;;;;;5092229;28;20233;-58
2021/12/18 01:57:01;;;;;;;18.38;9.35;;;4.10;99.90;;;;;;5092401;28;20318;-58
2021/12/18 01:59:39;;;;;;;15.75;8.85;;;4.10;99.90;;;;;;5092658;28;20545;-58
2021/12/18 02:02:07;;;;;;;16.45;8.93;;;4.10;99.90;;;;;;5090329;28;20211;-58
2021/12/18 02:04:33;;;;;;;19.38;9.68;;;4.00;99.90;;;;;;5092485;28;20180;-58
2021/12/18 02:06:59;;;;;;;18.38;9.52;;;4.00;99.90;;;;;;5092050;28;20206;-58
2021/12/18 02:09:35;;;;;;;16.67;9.07;;;4.00;99.90;;;;;;5092370;28;20652;-58
2021/12/18 02:12:01;;;;;;;21.48;10.30;;;3.90;99.90;;;;;;5092531;28;20186;-59
2021/12/18 02:19:34;;;;;;;17.75;9.52;;;3.90;99.90;;;;;;5092065;28;20560;-57
2021/12/18 02:20:25;;;;;;;21.63;10.38;;;3.90;99.90;;;;;;5092362;28;20183;-58
2021/12/18 02:22:55;;;;;;;19.85;9.90;;;3.90;99.90;;;;;;5092106;28;20195;-59
2021/12/18 02:25:23;;;;;;;21.90;10.35;;;3.90;99.90;;;;;;5092133;28;20530;-59
2021/12/18 02:27:51;;;;;;;18.83;9.57;;;3.90;99.90;;;;;;5091901;28;20198;-58
2021/12/18 02:30:17;;;;;;;16.55;9.52;;;3.90;99.90;;;;;;5091413;28;20736;-59
2021/12/18 02:32:43;;;;;;;19.52;10.07;;;3.90;99.90;;;;;;5092083;28;20179;-58
2021/12/18 02:35:10;;;;;;;19.60;9.60;;;3.80;99.90;;;;;;5091938;28;20651;-60
2021/12/18 02:37:40;;;;;;;17.75;9.98;;;3.80;99.90;;;;;;5091568;28;20242;-59
2021/12/18 02:42:35;;;;;;;17.85;10.35;;;3.90;99.90;;;;;;5091478;28;20706;-59
2021/12/18 02:45:02;;;;;;;19.98;9.60;;;3.90;99.90;;;;;;5091621;28;20254;-59
2021/12/18 02:47:28;;;;;;;18.77;9.90;;;3.90;99.90;;;;;;5091707;28;20529;-57
2021/12/18 02:49:54;;;;;;;21.98;10.18;;;3.90;99.90;;;;;;5080336;28;20180;-57
2021/12/18 02:52:25;;;;;;;20.83;10.20;;;3.90;99.90;;;;;;5087644;28;20180;-57
2021/12/18 02:54:51;;;;;;;20.42;9.75;;;3.90;99.90;;;;;;5089015;28;20279;-57
2021/12/18 02:57:18;;;;;;;20.67;10.00;;;3.90;99.90;;;;;;5091014;28;20653;-58
2021/12/18 02:59:49;;;;;;;19.60;9.30;;;3.90;99.90;;;;;;5090377;28;20263;-57
2021/12/18 03:02:16;;;;;;;18.75;10.05;;;3.90;99.90;;;;;;5076863;28;20176;-57
2021/12/18 03:04:44;;;;;;;18.77;10.18;;;3.90;99.90;;;;;;5091130;28;20657;-57
2021/12/18 03:07:12;;;;;;;20.45;10.10;;;3.80;99.90;;;;;;5091518;28;20172;-58
2021/12/18 03:18:56;;;;;;;20.38;9.80;;;3.80;99.90;;;;;;5090993;28;20199;-58
2021/12/18 03:24:07;;;;;;;19.95;10.02;;;3.80;99.90;;;;;;5095620;28;20572;-58
2021/12/18 03:25:58;;;;;;;17.95;10.10;;;3.80;99.90;;;;;;5094611;28;20340;-57
2021/12/18 03:28:29;;;;;;;19.92;9.77;;;3.80;99.90;;;;;;5095168;28;20188;-58
2021/12/18 03:30:55;;;;;;;20.17;10.40;;;3.80;99.90;;;;;;5094945;28;20546;-58
2021/12/18 03:33:22;;;;;;;20.27;9.98;;;3.70;99.90;;;;;;5095222;28;20210;-58
2021/12/18 03:35:48;;;;;;;21.40;10.98;;;3.70;99.90;;;;;;5095323;28;20371;-58
2021/12/18 03:38:14;;;;;;;23.27;10.90;;;3.70;99.90;;;;;;5095245;28;20194;-58
2021/12/18 03:40:40;;;;;;;19.67;10.32;;;3.70;99.90;;;;;;5095221;28;20237;-58
2021/12/18 03:43:05;;;;;;;19.48;10.38;;;3.70;99.90;;;;;;5094753;28;20192;-58
2021/12/18 03:45:31;;;;;;;22.10;10.73;;;3.70;99.90;;;;;;5094854;28;20216;-58
2021/12/18 03:47:56;;;;;;;20.42;9.75;;;3.70;99.90;;;;;;5095574;28;20638;-58
2021/12/18 03:50:22;;;;;;;19.40;9.75;;;3.70;99.90;;;;;;5094783;28;20175;-58
2021/12/18 03:52:49;;;;;;;18.42;10.10;;;3.60;99.90;;;;;;5094895;28;20237;-58
2021/12/18 03:55:15;;;;;;;21.00;10.20;;;3.60;99.90;;;;;;5094643;28;20176;-58
2021/12/18 03:57:40;;;;;;;21.48;10.55;;;3.60;99.90;;;;;;5094628;28;20367;-58
2021/12/18 04:00:09;;;;;;;21.10;10.52;;;3.60;99.90;;;;;;5094490;28;21843;-58
2021/12/18 04:02:34;;;;;;;19.02;9.93;;;3.60;99.90;;;;;;5094747;28;20443;-58
2021/12/18 04:05:00;;;;;;;23.25;10.23;;;3.60;99.90;;;;;;5094847;28;20208;-58
2021/12/18 04:07:26;;;;;;;16.92;9.43;;;3.60;99.90;;;;;;5094873;28;20183;-58
2021/12/18 04:09:51;;;;;;;20.02;9.32;;;3.60;99.90;;;;;;5094501;28;20180;-58
2021/12/18 04:12:17;;;;;;;20.90;10.10;;;3.60;99.90;;;;;;5093324;28;20532;-58
2021/12/18 04:14:43;;;;;;;21.63;10.43;;;3.50;99.90;;;;;;5094310;28;20192;-59
2021/12/18 04:17:08;;;;;;;22.10;11.32;;;3.50;99.90;;;;;;5094722;28;20207;-58
2021/12/18 04:19:34;;;;;;;21.13;10.77;;;3.50;99.90;;;;;;5094329;28;20674;-59
2021/12/18 04:22:00;;;;;;;20.27;9.65;;;3.50;99.90;;;;;;5094570;28;20613;-58
2021/12/18 04:24:25;;;;;;;22.70;10.73;;;3.50;99.90;;;;;;5092829;28;20184;-58
2021/12/18 04:26:51;;;;;;;20.05;9.68;;;3.50;99.90;;;;;;5094320;28;20180;-58
2021/12/18 04:29:16;;;;;;;19.30;10.00;;;3.50;99.90;;;;;;5094128;28;20222;-59
2021/12/18 04:31:43;;;;;;;21.25;10.10;;;3.50;99.90;;;;;;5094695;28;20172;-58
2021/12/18 04:34:08;;;;;;;20.10;10.25;;;3.50;99.90;;;;;;5093990;28;20188;-59
2021/12/18 04:36:34;;;;;;;21.05;10.88;;;3.50;99.90;;;;;;5093846;28;20571;-58
2021/12/18 04:39:00;;;;;;;21.00;10.70;;;3.50;99.90;;;;;;5094006;28;20511;-58
2021/12/18 04:41:47;;;;;;;18.65;9.85;;;3.50;99.90;;;;;;5094164;28;20711;-58
2021/12/18 04:44:13;;;;;;;20.05;9.65;;;3.50;99.90;;;;;;5093632;28;20179;-59
2021/12/18 04:46:39;;;;;;;20.20;9.55;;;3.50;99.90;;;;;;5093721;28;20267;-59
2021/12/18 04:49:04;;;;;;;19.98;10.35;;;3.50;99.90;;;;;;5092742;28;20176;-58
2021/12/18 04:51:30;;;;;;;21.77;10.32;;;3.50;99.90;;;;;;5092259;28;20191;-58
2021/12/18 04:53:56;;;;;;;22.10;10.13;;;3.50;99.90;;;;;;5093409;28;20647;-58
2021/12/18 04:56:21;;;;;;;19.60;10.60;;;3.50;99.90;;;;;;5092639;28;20208;-58
2021/12/18 04:58:47;;;;;;;22.33;10.15;;;3.50;99.90;;;;;;5093509;28;20520;-58
2021/12/18 05:01:13;;;;;;;24.05;11.07;;;3.50;99.90;;;;;;5093877;28;20175;-58
2021/12/18 05:03:40;;;;;;;24.85;10.73;;;3.50;99.90;;;;;;5093427;28;20246;-58
2021/12/18 05:06:05;;;;;;;20.33;10.32;;;3.60;99.90;;;;;;5093546;28;20172;-58
2021/12/18 05:08:31;;;;;;;21.10;10.65;;;3.60;99.90;;;;;;5093107;28;20286;-58
2021/12/18 05:10:56;;;;;;;20.98;10.45;;;3.60;99.90;;;;;;5093602;28;20184;-58
2021/12/18 05:13:22;;;;;;;21.00;10.90;;;3.60;99.90;;;;;;5093655;28;20535;-58
2021/12/18 05:15:47;;;;;;;22.27;10.15;;;3.60;99.90;;;;;;5092847;28;20698;-58
2021/12/18 05:18:13;;;;;;;20.48;11.05;;;3.60;99.90;;;;;;5093887;28;20643;-58
2021/12/18 05:20:39;;;;;;;21.73;10.15;;;3.60;99.90;;;;;;5092785;28;20180;-58
2021/12/18 05:23:04;;;;;;;21.08;10.45;;;3.60;99.90;;;;;;5093438;28;20180;-58
2021/12/18 05:25:30;;;;;;;21.38;10.20;;;3.60;99.90;;;;;;5093022;28;20188;-58
2021/12/18 05:27:55;;;;;;;25.40;10.70;;;3.60;99.90;;;;;;5093320;28;20176;-58
2021/12/18 05:30:21;;;;;;;21.58;9.88;;;3.60;99.90;;;;;;5092876;28;20251;-58
2021/12/18 05:32:47;;;;;;;21.42;10.30;;;3.60;99.90;;;;;;5093220;28;20267;-58
2021/12/18 05:35:15;;;;;;;22.27;10.98;;;3.60;99.90;;;;;;5092763;28;20180;-58
2021/12/18 05:37:47;;;;;;;22.00;10.77;;;3.60;99.90;;;;;;5092785;28;20216;-58
2021/12/18 05:40:17;;;;;;;20.23;10.23;;;3.60;99.90;;;;;;5092906;28;20250;-59
2021/12/18 05:42:45;;;;;;;21.45;10.57;;;3.60;99.90;;;;;;5092594;28;20190;-58
2021/12/18 05:45:10;;;;;;;22.52;10.48;;;3.50;99.90;;;;;;5092844;28;20179;-58
2021/12/18 05:47:36;;;;;;;23.50;11.30;;;3.50;99.90;;;;;;5092450;28;20176;-58
2021/12/18 05:50:03;;;;;;;20.67;10.25;;;3.50;99.90;;;;;;5092872;28;20595;-58
2021/12/18 05:52:28;;;;;;;20.77;10.15;;;3.50;99.90;;;;;;5092634;28;20172;-58
2021/12/18 05:54:54;;;;;;;18.48;9.30;;;3.50;99.90;;;;;;5092076;28;20237;-58
2021/12/18 05:57:19;;;;;;;22.77;10.13;;;3.50;99.90;;;;;;5092315;28;20232;-58
2021/12/18 05:59:45;;;;;;;20.88;9.80;;;3.40;99.90;;;;;;5091923;28;20180;-59
2021/12/18 06:02:11;;;;;;;17.85;9.38;;;3.40;99.90;;;;;;5091893;28;20212;-59
2021/12/18 06:04:37;;;;;;;19.63;9.80;;;3.40;99.90;;;;;;5091763;28;20229;-59
2021/12/18 06:07:04;;;;;;;21.02;10.82;;;3.40;99.90;;;;;;5113306;28;20738;-60
2021/12/18 06:09:33;;;;;;;19.27;9.35;;;3.40;99.90;;;;;;5084652;28;20185;-60
2021/12/18 06:12:00;;;;;;;19.98;10.05;;;3.40;99.90;;;;;;5072528;28;20640;-59
2021/12/18 06:14:26;;;;;;;21.85;10.18;;;3.40;99.90;;;;;;5090822;28;20172;-59
2021/12/18 06:16:52;;;;;;;20.08;9.52;;;3.40;99.90;;;;;;5092691;28;20299;-59
2021/12/18 06:19:17;;;;;;;18.23;9.20;;;3.40;99.90;;;;;;5075098;28;20264;-59
2021/12/18 06:21:43;;;;;;;22.33;10.68;;;3.40;99.90;;;;;;5083568;28;20204;-59
2021/12/18 06:24:08;;;;;;;17.55;9.10;;;3.40;99.90;;;;;;5081050;28;20177;-61
2021/12/18 06:26:34;;;;;;;19.80;9.23;;;3.50;99.90;;;;;;5072285;28;20724;-57
2021/12/18 06:28:59;;;;;;;19.73;9.80;;;3.40;99.90;;;;;;5083679;28;20457;-58
2021/12/18 06:31:25;;;;;;;15.30;7.82;;;3.30;99.90;;;;;;5087390;28;20187;-58
2021/12/18 06:33:51;;;;;;;18.90;9.50;;;3.40;99.90;;;;;;5092184;28;20176;-62
2021/12/18 06:36:17;;;;;;;17.27;9.02;;;3.30;99.90;;;;;;5077345;28;20208;-60
2021/12/18 06:38:42;;;;;;;22.00;9.25;;;3.30;99.90;;;;;;5091589;28;20204;-60
2021/12/18 06:41:08;;;;;;;18.95;9.60;;;3.30;99.90;;;;;;5075352;28;20189;-60
2021/12/18 06:43:33;;;;;;;18.38;9.13;;;3.40;99.90;;;;;;5080130;28;20176;-58
2021/12/18 06:45:59;;;;;;;18.38;9.45;;;3.40;99.90;;;;;;5088349;28;20176;-60
2021/12/18 06:48:24;;;;;;;19.38;8.98;;;3.40;99.90;;;;;;5091438;28;20178;-64
2021/12/18 06:50:50;;;;;;;20.60;9.27;;;3.40;99.90;;;;;;5090784;28;20176;-63
2021/12/18 06:53:16;;;;;;;24.30;11.63;;;3.40;99.90;;;;;;5090924;28;20172;-59
2021/12/18 06:55:42;;;;;;;18.98;9.55;;;3.40;99.90;;;;;;5091684;28;20262;-59
2021/12/18 06:58:08;;;;;;;17.77;9.52;;;3.40;99.90;;;;;;5091131;28;20737;-60
2021/12/18 07:00:33;;;;;;;22.02;9.30;;;3.40;99.90;;;;;;5090850;28;20639;-61
2021/12/18 07:02:59;;;;;;;18.85;9.90;;;3.40;99.90;;;;;;5091706;28;20176;-60
2021/12/18 07:05:25;;;;;;;21.05;9.63;;;3.40;99.90;;;;;;5091509;28;20164;-60
2021/12/18 07:07:51;;;;;;;19.83;9.32;;;3.40;99.90;;;;;;5091597;28;20696;-60
2021/12/18 07:10:18;;;;;;;20.33;9.30;;;3.40;99.90;;;;;;5091470;28;20215;-60
2021/12/18 07:12:43;;;;;;;20.83;9.57;;;3.50;99.90;;;;;;5091227;28;20506;-60
2021/12/18 07:15:11;;;;;;;16.40;8.32;;;3.40;99.90;;;;;;5091888;28;20187;-60
2021/12/18 07:17:37;;;;;;;17.13;8.48;;;3.50;99.90;;;;;;5090982;28;20220;-60
2021/12/18 07:20:05;;;;;;;16.90;8.48;;;3.50;99.90;;;;;;5091392;28;20172;-60
2021/12/18 07:22:30;;;;;;;19.83;9.73;;;3.60;99.90;;;;;;5091290;28;20202;-61
2021/12/18 07:24:56;;;;;;;19.00;8.85;;;3.60;99.90;;;;;;5091320;28;20541;-61
2021/12/18 07:27:21;;;;;;;19.98;9.45;;;3.60;99.90;;;;;;5090847;28;20180;-62
2021/12/18 07:29:47;;;;;;;17.63;8.30;;;3.60;99.90;;;;;;5091411;28;20180;-62
2021/12/18 07:32:13;;;;;;;17.67;9.02;;;3.60;99.90;;;;;;5089329;28;20643;-62
2021/12/18 07:34:38;;;;;;;19.20;9.02;;;3.70;99.90;;;;;;5091129;28;20267;-61
2021/12/18 07:37:04;;;;;;;17.83;9.02;;;3.60;99.90;;;;;;5091169;28;20254;-61
2021/12/18 07:39:29;;;;;;;19.67;9.20;;;3.60;99.90;;;;;;5090878;28;20208;-61
2021/12/18 07:41:55;;;;;;;19.27;9.48;;;3.70;99.90;;;;;;5091359;28;20189;-61
2021/12/18 07:44:21;;;;;;;18.60;9.07;;;3.70;99.90;;;;;;5090555;28;20180;-61
2021/12/18 07:46:46;;;;;;;19.40;9.18;;;3.70;99.90;;;;;;5091199;28;20546;-61
2021/12/18 07:49:12;;;;;;;20.83;9.93;;;3.70;99.90;;;;;;5089543;28;20177;-61
2021/12/18 07:51:38;;;;;;;18.60;8.93;;;3.70;99.90;;;;;;5091201;28;20263;-61
2021/12/18 07:54:05;;;;;;;22.50;10.55;;;3.70;99.90;;;;;;5091233;28;20200;-61
2021/12/18 07:56:32;;;;;;;18.70;10.00;;;3.70;99.90;;;;;;5094281;28;20590;-61
2021/12/18 07:58:57;;;;;;;20.63;10.02;;;3.70;99.90;;;;;;5100694;28;20226;-62
2021/12/18 08:01:26;;;;;;;17.52;8.93;;;3.80;99.90;;;;;;5094666;28;20538;-62
2021/12/18 08:03:51;;;;;;;21.98;10.35;;;3.80;99.90;;;;;;5095146;28;20281;-62
2021/12/18 08:06:20;;;;;;;18.40;9.82;;;3.90;99.90;;;;;;5094809;28;20203;-61
2021/12/18 08:09:23;;;;;;;;;;;;;;;;;;;;;
2021/12/18 08:11:49;;;;;;;21.25;9.60;;;4.00;99.90;;;;;;5094775;28;20198;-60
2021/12/18 08:14:15;;;;;;;19.92;10.25;;;4.00;99.90;;;;;;5094470;28;20702;-60
2021/12/18 08:16:40;;;;;;;17.70;9.00;;;4.00;99.90;;;;;;5094739;28;20207;-60
2021/12/18 08:19:06;;;;;;;18.13;9.07;;;4.10;99.90;;;;;;5094536;28;20207;-61
2021/12/18 08:21:31;;;;;;;20.15;9.25;;;4.10;99.90;;;;;;5094516;28;20176;-61
2021/12/18 08:23:57;;;;;;;17.98;9.45;;;4.10;99.90;;;;;;5094563;28;20188;-61
2021/12/18 08:26:24;;;;;;;20.13;10.30;;;4.00;99.90;;;;;;5094646;28;20169;-62
2021/12/18 08:28:50;;;;;;;17.15;8.43;;;4.00;99.90;;;;;;5094159;28;20203;-59
2021/12/18 08:31:15;;;;;;;20.77;9.38;;;4.00;99.90;;;;;;5094413;28;20188;-60
2021/12/18 08:33:41;;;;;;;20.60;9.52;;;4.10;99.90;;;;;;5089885;28;20288;-61
2021/12/18 08:36:07;;;;;;;19.95;9.88;;;4.00;99.90;;;;;;5093149;28;20268;-60
2021/12/18 08:38:32;;;;;;;18.65;9.52;;;4.00;99.90;;;;;;5094059;28;20230;-60
2021/12/18 08:40:58;;;;;;;19.95;9.70;;;4.00;99.90;;;;;;5094083;28;20536;-60
2021/12/18 08:43:24;;;;;;;21.58;10.02;;;4.00;99.90;;;;;;5094095;28;20199;-60
2021/12/18 08:45:50;;;;;;;20.40;9.70;;;4.00;99.90;;;;;;5094147;28;20188;-60
2021/12/18 08:48:16;;;;;;;22.42;10.65;;;4.00;99.90;;;;;;5093809;28;20187;-61
2021/12/18 08:50:42;;;;;;;24.13;11.30;;;4.00;99.90;;;;;;5093684;28;20597;-60
2021/12/18 08:53:08;;;;;;;21.77;10.63;;;4.10;99.90;;;;;;5094118;28;20643;-61
2021/12/18 08:55:34;;;;;;;19.77;10.07;;;4.00;99.90;;;;;;5093584;28;20191;-61
2021/12/18 08:57:59;;;;;;;21.85;9.43;;;4.10;99.90;;;;;;5093759;28;20284;-59
2021/12/18 09:00:26;;;;;;;17.85;9.43;;;4.10;99.90;;;;;;5092120;28;20636;-60
2021/12/18 09:02:54;;;;;;;26.40;12.15;;;4.10;99.90;;;;;;5093116;28;20184;-60
2021/12/18 09:05:21;;;;;;;23.65;12.27;;;4.10;99.90;;;;;;5092247;28;20172;-59
2021/12/18 09:07:47;;;;;;;20.20;10.23;;;4.00;99.90;;;;;;5093535;28;20187;-59
2021/12/18 09:10:14;;;;;;;22.80;12.65;;;4.00;99.90;;;;;;5093256;28;20184;-60
2021/12/18 09:12:41;;;;;;;21.25;9.80;;;4.00;99.90;;;;;;5093554;28;20625;-60
2021/12/18 09:15:07;;;;;;;19.15;9.23;;;4.10;99.90;;;;;;5092919;28;20187;-60
2021/12/18 09:17:32;;;;;;;19.98;10.27;;;4.10;99.90;;;;;;5100688;28;20220;-60
2021/12/18 09:19:58;;;;;;;18.85;9.18;;;4.20;99.90;;;;;;5093225;28;20253;-60
2021/12/18 09:22:24;;;;;;;18.50;9.00;;;4.20;99.90;;;;;;5093520;28;20172;-60
2021/12/18 09:24:49;;;;;;;20.35;8.77;;;4.20;99.90;;;;;;5093798;28;20756;-60
2021/12/18 09:27:19;;;;;;;18.85;8.88;;;4.30;99.90;;;;;;5093204;28;20207;-60
2021/12/18 09:29:44;;;;;;;21.17;8.48;;;4.20;99.90;;;;;;5092844;28;20187;-60
2021/12/18 09:32:10;;;;;;;16.83;8.68;;;4.20;99.90;;;;;;5093072;28;20542;-61
2021/12/18 09:34:35;;;;;;;20.10;9.38;;;4.10;99.90;;;;;;5092373;28;20531;-60
2021/12/18 09:37:02;;;;;;;19.17;9.02;;;4.10;99.90;;;;;;5093285;28;20215;-59
2021/12/18 09:39:28;;;;;;;54.13;22.15;;;4.20;99.90;;;;;;5091736;28;20175;-60
2021/12/18 09:41:53;;;;;;;22.35;9.73;;;4.40;99.90;;;;;;5092836;28;20180;-60
2021/12/18 09:44:24;;;;;;;19.13;9.60;;;4.80;99.90;;;;;;5087453;28;20175;-60
2021/12/18 09:46:50;;;;;;;21.13;8.88;;;4.80;99.90;;;;;;5093048;28;20207;-60
2021/12/18 09:49:16;;;;;;;21.50;9.60;;;4.70;99.90;;;;;;5091673;28;20714;-60
2021/12/18 09:51:42;;;;;;;17.60;9.43;;;4.70;99.90;;;;;;5093210;28;20259;-60
2021/12/18 09:54:08;;;;;;;19.65;10.00;;;4.60;99.90;;;;;;5093158;28;20179;-60
2021/12/18 09:56:33;;;;;;;16.50;8.70;;;4.60;99.90;;;;;;5092598;28;20326;-60
2021/12/18 09:58:59;;;;;;;21.05;9.32;;;4.60;99.90;;;;;;5092974;28;20172;-60
2021/12/18 10:01:25;;;;;;;21.20;10.35;;;4.50;99.90;;;;;;5092582;28;20639;-60
2021/12/18 10:03:58;;;;;;;70.57;29.52;;;4.60;99.90;;;;;;5090737;28;20237;-63
2021/12/18 10:06:44;;;;;;;50.10;22.63;;;4.60;99.90;;;;;;5089091;28;20706;-64
2021/12/18 10:09:12;;;;;;;47.22;20.25;;;5.60;99.90;;;;;;5084857;28;20245;-61
2021/12/18 10:11:53;;;;;;;29.60;14.15;;;6.70;99.90;;;;;;5086888;28;20188;-59
2021/12/18 10:14:20;;;;;;;23.52;11.82;;;7.20;99.90;;;;;;5077946;28;20184;-60
2021/12/18 10:16:50;;;;;;;17.27;8.85;;;7.00;99.90;;;;;;5092439;28;20857;-60
2021/12/18 10:19:39;;;;;;;18.05;9.15;;;6.60;99.90;;;;;;5091639;28;20218;-60
2021/12/18 10:22:07;;;;;;;16.63;9.20;;;6.20;99.90;;;;;;5091253;28;20586;-59
2021/12/18 10:24:35;;;;;;;15.18;7.75;;;5.80;99.90;;;;;;5091763;28;20619;-60
2021/12/18 10:27:15;;;;;;;17.48;8.45;;;5.50;99.90;;;;;;5092188;28;20176;-59
2021/12/18 10:29:41;;;;;;;16.73;8.23;;;5.30;99.90;;;;;;5091136;28;20507;-60
2021/12/18 10:32:13;;;;;;;16.88;8.27;;;5.20;99.90;;;;;;5092066;28;20684;-59
2021/12/18 10:34:41;;;;;;;16.02;8.25;;;5.10;99.90;;;;;;5091409;28;20324;-60
2021/12/18 10:37:19;;;;;;;14.38;7.82;;;5.00;99.90;;;;;;5091962;28;20667;-59
2021/12/18 10:39:51;;;;;;;17.25;8.27;;;4.90;99.90;;;;;;5091707;28;20172;-59
2021/12/18 10:42:23;;;;;;;15.25;7.93;;;4.90;99.90;;;;;;5091688;28;20692;-61
2021/12/18 10:44:55;;;;;;;16.65;7.65;;;4.80;99.90;;;;;;5091100;28;20176;-61
2021/12/18 10:47:21;;;;;;;14.45;7.22;;;4.70;99.90;;;;;;5091703;28;20173;-61
2021/12/18 10:49:46;;;;;;;15.43;7.85;;;4.70;99.90;;;;;;5091861;28;20198;-60
2021/12/18 10:52:12;;;;;;;17.40;7.65;;;4.60;99.90;;;;;;5091195;28;20654;-60
2021/12/18 10:54:43;;;;;;;17.00;8.10;;;4.60;99.90;;;;;;5089566;28;20188;-60
2021/12/18 10:57:24;;;;;;;15.93;7.55;;;4.60;99.90;;;;;;5071228;28;20315;-62
2021/12/18 10:59:51;;;;;;;13.73;6.80;;;4.60;99.90;;;;;;5081547;28;20247;-62
2021/12/18 11:02:17;;;;;;;11.50;6.97;;;4.60;99.90;;;;;;5089635;28;20219;-62
2021/12/18 11:04:44;;;;;;;13.05;6.10;;;4.60;99.90;;;;;;5091046;28;20616;-62
2021/12/18 11:07:29;;;;;;;11.43;6.30;;;4.60;99.90;;;;;;5091370;28;20180;-62
2021/12/18 11:10:14;;;;;;;11.82;5.95;;;4.60;99.90;;;;;;5091524;28;20703;-61
2021/12/18 11:15:25;;;;;;;8.70;4.80;;;4.70;99.90;;;;;;5090832;28;20229;-61
2021/12/18 11:17:51;;;;;;;15.43;7.63;;;4.70;99.90;;;;;;5091453;28;20226;-61
2021/12/18 11:20:17;;;;;;;10.95;6.35;;;4.70;99.90;;;;;;5090959;28;20190;-61
2021/12/18 11:22:43;;;;;;;14.82;7.80;;;4.70;99.90;;;;;;5091209;28;20186;-62
2021/12/18 11:25:11;;;;;;;11.93;6.25;;;4.70;99.90;;;;;;5090855;28;20180;-63
2021/12/18 11:27:38;;;;;;;11.68;6.20;;;4.70;99.90;;;;;;5090765;28;20628;-62
2021/12/18 11:30:12;;;;;;;10.60;5.70;;;4.80;99.90;;;;;;5089110;28;20724;-62
2021/12/18 11:32:54;;;;;;;11.50;5.22;;;4.80;99.90;;;;;;5091186;28;20180;-62
2021/12/18 11:35:21;;;;;;;9.18;5.28;;;4.80;99.90;;;;;;5094353;28;20575;-61
2021/12/18 11:37:49;;;;;;;12.52;5.78;;;4.80;99.90;;;;;;5095374;28;20211;-64
2021/12/18 11:40:19;;;;;;;13.80;8.68;;;4.80;99.90;;;;;;5094824;28;20185;-61
2021/12/18 11:42:45;;;;;;;11.88;5.65;;;4.80;99.90;;;;;;5095418;28;20666;-61
2021/12/18 11:45:11;;;;;;;10.98;6.18;;;4.80;99.90;;;;;;5094765;28;20248;-62
2021/12/18 11:47:55;;;;;;;9.70;5.70;;;4.80;99.90;;;;;;5094991;28;20172;-62
2021/12/18 11:50:29;;;;;;;10.88;6.10;;;4.90;99.90;;;;;;5094593;28;20647;-61
2021/12/18 11:52:56;;;;;;;11.63;6.50;;;5.00;99.90;;;;;;5094031;28;20202;-63
2021/12/18 11:55:23;;;;;;;11.38;5.85;;;5.00;99.90;;;;;;5086703;28;20219;-62
2021/12/18 11:57:55;;;;;;;12.68;6.47;;;5.00;99.90;;;;;;5087203;28;20224;-61
2021/12/18 12:00:23;;;;;;;12.65;6.32;;;5.00;99.90;;;;;;5094328;28;20662;-61
2021/12/18 12:02:54;;;;;;;13.77;7.00;;;5.00;99.90;;;;;;5095242;28;20224;-61
2021/12/18 12:05:32;;;;;;;19.95;9.48;;;5.00;99.90;;;;;;5094464;28;20207;-59
2021/12/18 12:08:17;;;;;;;43.13;16.10;;;5.00;99.90;;;;;;5095081;28;20175;-60
2021/12/18 12:11:16;;;;;;;21.35;10.10;;;5.00;99.90;;;;;;5074560;28;20180;-60
2021/12/18 12:13:58;;;;;;;16.35;8.00;;;5.00;99.90;;;;;;5079491;28;20176;-60
2021/12/18 12:16:44;;;;;;;12.50;6.93;;;5.00;99.90;;;;;;5094102;28;20256;-62
2021/12/18 12:19:18;;;;;;;14.52;8.13;;;5.10;99.90;;;;;;5050187;28;20191;-60
2021/12/18 12:21:49;;;;;;;21.63;11.50;;;5.10;99.90;;;;;;5094778;28;20175;-61
2021/12/18 12:24:17;;;;;;;14.80;8.07;;;5.10;99.90;;;;;;5094648;28;20177;-63
2021/12/18 12:26:44;;;;;;;10.60;5.82;;;5.10;99.90;;;;;;5094288;28;20191;-61
2021/12/18 12:29:13;;;;;;;11.13;5.93;;;5.00;99.90;;;;;;5093259;28;20172;-62
2021/12/18 12:31:56;;;;;;;10.90;6.15;;;5.00;99.90;;;;;;5094170;28;20266;-62
2021/12/18 12:34:34;;;;;;;17.30;9.73;;;5.00;99.90;;;;;;5093626;28;20176;-62
2021/12/18 12:37:34;;;;;;;31.73;15.40;;;5.00;99.90;;;;;;5094303;28;20331;-62
2021/12/18 12:40:10;;;;;;;13.88;7.65;;;4.90;99.90;;;;;;5078752;28;20651;-62
2021/12/18 12:42:38;;;;;;;12.60;6.63;;;4.90;99.90;;;;;;5090297;28;20639;-63
2021/12/18 12:45:14;;;;;;;14.40;6.70;;;4.80;99.90;;;;;;5091691;28;20544;-61
2021/12/18 12:47:51;;;;;;;11.38;6.70;;;4.80;99.90;;;;;;5093962;28;20172;-62
2021/12/18 12:50:20;;;;;;;15.00;7.38;;;4.90;99.90;;;;;;5093806;28;20180;-62
2021/12/18 12:53:01;;;;;;;14.93;7.07;;;4.90;99.90;;;;;;5094091;28;20168;-63
2021/12/18 12:55:30;;;;;;;11.95;6.55;;;4.90;99.90;;;;;;5085280;28;20188;-63
2021/12/18 12:57:58;;;;;;;10.95;6.00;;;5.00;99.90;;;;;;5072440;28;20599;-62
2021/12/18 13:00:23;;;;;;;10.20;6.00;;;5.00;99.90;;;;;;5091106;28;20187;-62
2021/12/18 13:02:55;;;;;;;10.20;6.05;;;5.00;99.90;;;;;;5093383;28;20176;-62
2021/12/18 13:05:22;;;;;;;11.63;6.25;;;5.00;99.90;;;;;;5100803;28;20172;-62
2021/12/18 13:07:49;;;;;;;10.75;6.20;;;5.00;99.90;;;;;;5094035;28;20192;-62
2021/12/18 13:10:25;;;;;;;12.20;6.38;;;5.00;99.90;;;;;;5073798;28;20181;-62
2021/12/18 13:13:02;;;;;;;12.60;6.68;;;4.90;99.90;;;;;;5086911;28;20167;-63
2021/12/18 13:15:44;;;;;;;13.23;6.85;;;4.90;99.90;;;;;;5093471;28;20178;-61
2021/12/18 13:18:10;;;;;;;16.15;7.55;;;4.90;99.90;;;;;;5093140;28;20783;-62
2021/12/18 13:20:55;;;;;;;13.00;6.68;;;4.90;99.90;;;;;;5093493;28;20176;-61
2021/12/18 13:23:21;;;;;;;12.07;6.18;;;4.90;99.90;;;;;;5093007;28;20184;-63
2021/12/18 13:25:50;;;;;;;11.43;6.28;;;4.90;99.90;;;;;;5093692;28;20226;-62
2021/12/18 13:28:15;;;;;;;11.55;6.90;;;5.00;99.90;;;;;;5093179;28;20263;-62